createdAt,value
2022-11-05T00:00:30.992Z,4.05
2022-11-05T00:03:16.760Z,4.10
2022-11-05T00:06:03.736Z,6.63
2022-11-05T00:08:49.725Z,6.25
2022-11-05T00:11:18.629Z,4.07
2022-11-05T00:14:04.516Z,8.30
2022-11-05T00:16:46.432Z,10.40
2022-11-05T00:19:15.153Z,6.20
2022-11-05T00:22:03.549Z,10.02
2022-11-05T00:24:49.013Z,9.02
2022-11-05T00:27:17.389Z,6.05
2022-11-05T00:29:45.812Z,7.22
2022-11-05T00:32:15.598Z,11.20
2022-11-05T00:34:43.906Z,14.35
2022-11-05T00:37:12.343Z,9.38
2022-11-05T00:39:40.661Z,10.05
2022-11-05T00:42:34.874Z,9.60
2022-11-05T00:45:03.271Z,6.78
2022-11-05T00:47:51.753Z,11.55
2022-11-05T00:50:21.077Z,8.77
2022-11-05T00:52:57.897Z,12.68
2022-11-05T00:55:28.815Z,10.93
2022-11-05T00:57:57.845Z,9.48
2022-11-05T01:00:28.708Z,10.90
2022-11-05T01:03:01.498Z,11.15
2022-11-05T01:05:30.689Z,11.47
2022-11-05T01:07:59.581Z,5.78
2022-11-05T01:10:28.826Z,11.50
2022-11-05T01:12:57.805Z,7.07
2022-11-05T01:15:26.267Z,8.65
2022-11-05T01:17:54.562Z,12.63
2022-11-05T01:20:24.425Z,9.20
2022-11-05T01:22:53.118Z,7.50
2022-11-05T01:25:21.572Z,10.20
2022-11-05T01:27:50.419Z,9.60
2022-11-05T01:30:18.986Z,11.25
2022-11-05T01:32:47.390Z,12.82
2022-11-05T01:35:17.245Z,8.45
2022-11-05T01:37:47.069Z,14.15
2022-11-05T01:40:17.330Z,9.60
2022-11-05T01:42:46.495Z,9.75
2022-11-05T01:45:17.838Z,10.65
2022-11-05T01:47:59.886Z,14.35
2022-11-05T01:50:39.702Z,9.68
2022-11-05T01:53:16.253Z,8.30
2022-11-05T01:55:49.319Z,9.05
2022-11-05T01:58:22.670Z,7.97
2022-11-05T02:00:51.146Z,9.18
2022-11-05T02:03:20.672Z,10.93
2022-11-05T02:05:51.958Z,11.50
2022-11-05T02:08:36.593Z,8.95
2022-11-05T02:11:05.106Z,10.00
2022-11-05T02:13:33.545Z,7.82
2022-11-05T02:16:08.079Z,9.70
2022-11-05T02:18:50.021Z,8.93
2022-11-05T02:21:47.547Z,11.13
2022-11-05T02:24:44.241Z,12.85
2022-11-05T02:27:20.377Z,12.30
2022-11-05T02:30:22.169Z,12.27
2022-11-05T02:33:24.396Z,11.45
2022-11-05T02:36:10.550Z,12.07
2022-11-05T02:38:44.489Z,11.07
2022-11-05T02:41:24.761Z,11.98
2022-11-05T02:44:06.230Z,13.90
2022-11-05T02:46:46.062Z,10.65
2022-11-05T02:49:28.678Z,11.65
2022-11-05T02:52:00.056Z,10.48
2022-11-05T02:54:32.816Z,11.55
2022-11-05T02:57:03.912Z,11.30
2022-11-05T02:59:32.381Z,11.15
2022-11-05T03:02:02.504Z,11.07
2022-11-05T03:04:33.489Z,11.00
2022-11-05T03:07:28.485Z,11.43
2022-11-05T03:10:13.058Z,11.55
2022-11-05T03:12:54.199Z,15.02
2022-11-05T03:15:40.715Z,9.18
2022-11-05T03:18:16.382Z,10.25
2022-11-05T03:20:51.682Z,12.30
2022-11-05T03:23:29.119Z,10.02
2022-11-05T03:26:03.518Z,13.73
2022-11-05T03:28:36.863Z,9.18
2022-11-05T03:31:07.547Z,10.40
2022-11-05T03:33:39.044Z,12.05
2022-11-05T03:36:16.347Z,9.65
2022-11-05T03:38:51.017Z,10.38
2022-11-05T03:41:22.055Z,10.70
2022-11-05T03:43:55.989Z,14.25
2022-11-05T03:46:28.046Z,13.35
2022-11-05T03:48:58.484Z,14.95
2022-11-05T03:51:37.783Z,10.73
2022-11-05T03:54:07.165Z,12.55
2022-11-05T03:56:42.009Z,11.35
2022-11-05T03:59:12.801Z,12.32
2022-11-05T04:01:42.359Z,9.13
2022-11-05T04:04:11.594Z,17.63
2022-11-05T04:06:58.960Z,10.18
2022-11-05T04:09:44.501Z,9.07
2022-11-05T04:12:30.612Z,12.18
2022-11-05T04:14:59.091Z,9.65
2022-11-05T04:17:26.415Z,12.02
2022-11-05T04:20:20.370Z,9.82
2022-11-05T04:23:07.532Z,10.68
2022-11-05T04:25:36.325Z,12.13
2022-11-05T04:28:04.753Z,8.52
2022-11-05T04:30:32.114Z,13.98
2022-11-05T04:33:03.450Z,10.25
2022-11-05T04:35:34.051Z,14.38
2022-11-05T04:38:04.642Z,14.20
2022-11-05T04:40:35.778Z,15.50
2022-11-05T04:43:04.690Z,14.73
2022-11-05T04:45:35.704Z,14.88
2022-11-05T04:48:05.045Z,11.65
2022-11-05T04:50:34.282Z,12.95
2022-11-05T04:53:04.732Z,14.30
2022-11-05T04:55:33.206Z,13.10
2022-11-05T04:58:01.900Z,9.75
2022-11-05T05:00:30.641Z,12.80
2022-11-05T05:02:59.206Z,11.98
2022-11-05T05:05:27.970Z,9.10
2022-11-05T05:07:56.616Z,10.60
2022-11-05T05:10:26.423Z,11.55
2022-11-05T05:12:55.360Z,11.50
2022-11-05T05:15:23.861Z,7.90
2022-11-05T05:17:52.743Z,11.55
2022-11-05T05:20:41.043Z,8.35
2022-11-05T05:23:10.193Z,11.38
2022-11-05T05:25:40.488Z,11.70
2022-11-05T05:28:08.862Z,10.25
2022-11-05T05:30:37.339Z,10.80
2022-11-05T05:33:06.246Z,13.55
2022-11-05T05:35:34.669Z,18.08
2022-11-05T05:38:02.990Z,7.30
2022-11-05T05:40:31.542Z,10.73
2022-11-05T05:43:01.391Z,8.77
2022-11-05T05:45:29.743Z,14.95
2022-11-05T05:47:58.175Z,10.90
2022-11-05T05:50:26.750Z,11.50
2022-11-05T05:52:55.298Z,16.02
2022-11-05T05:55:23.617Z,11.38
2022-11-05T05:57:52.224Z,14.68
2022-11-05T06:00:22.515Z,12.13
2022-11-05T06:02:50.970Z,12.30
2022-11-05T06:05:19.446Z,14.98
2022-11-05T06:07:48.384Z,10.63
2022-11-05T06:10:18.815Z,14.85
2022-11-05T06:12:47.800Z,13.48
2022-11-05T06:15:16.378Z,11.73
2022-11-05T06:17:46.320Z,7.57
2022-11-05T06:20:14.841Z,11.70
2022-11-05T06:22:43.278Z,15.85
2022-11-05T06:25:12.226Z,16.60
2022-11-05T06:27:40.553Z,12.27
2022-11-05T06:30:10.574Z,11.73
2022-11-05T06:32:39.006Z,16.80
2022-11-05T06:35:10.356Z,14.02
2022-11-05T06:37:38.797Z,15.52
2022-11-05T06:40:08.447Z,12.48
2022-11-05T06:42:37.161Z,17.27
2022-11-05T06:45:06.148Z,16.58
2022-11-05T06:47:34.723Z,15.55
2022-11-05T06:50:03.157Z,14.05
2022-11-05T06:52:35.923Z,18.50
2022-11-05T06:55:08.914Z,14.15
2022-11-05T06:57:39.216Z,17.73
2022-11-05T07:00:10.047Z,15.27
2022-11-05T07:02:38.406Z,15.27
2022-11-05T07:05:07.457Z,14.80
2022-11-05T07:07:37.335Z,16.58
2022-11-05T07:10:07.002Z,14.43
2022-11-05T07:12:35.399Z,14.27
2022-11-05T07:15:03.801Z,12.95
2022-11-05T07:17:32.255Z,14.45
2022-11-05T07:20:00.673Z,14.38
2022-11-05T07:22:29.017Z,15.75
2022-11-05T07:24:58.826Z,14.98
2022-11-05T07:27:27.185Z,17.00
2022-11-05T07:29:55.764Z,12.57
2022-11-05T07:32:24.559Z,11.57
2022-11-05T07:34:52.898Z,16.25
2022-11-05T07:37:21.217Z,15.40
2022-11-05T07:39:49.562Z,13.00
2022-11-05T07:42:19.363Z,19.70
2022-11-05T07:44:47.710Z,22.05
2022-11-05T07:47:16.066Z,22.85
2022-11-05T07:49:44.450Z,20.25
2022-11-05T07:52:12.817Z,20.23
2022-11-05T07:54:41.150Z,14.52
2022-11-05T07:57:09.693Z,14.93
2022-11-05T07:59:39.461Z,13.85
2022-11-05T08:02:10.556Z,15.57
2022-11-05T08:04:40.454Z,14.90
2022-11-05T08:07:08.736Z,12.77
2022-11-05T08:09:37.144Z,11.25
2022-11-05T08:12:06.201Z,12.30
2022-11-05T08:14:36.441Z,11.77
2022-11-05T08:17:08.460Z,12.80
2022-11-05T08:19:37.262Z,12.65
2022-11-05T08:22:05.661Z,11.40
2022-11-05T08:24:34.039Z,12.07
2022-11-05T08:27:02.524Z,9.30
2022-11-05T08:29:30.856Z,12.73
2022-11-05T08:31:59.158Z,11.90
2022-11-05T08:34:29.321Z,12.50
2022-11-05T08:36:57.693Z,8.93
2022-11-05T08:39:26.680Z,7.68
2022-11-05T08:41:56.354Z,6.90
2022-11-05T08:44:24.689Z,11.48
2022-11-05T08:46:53.117Z,9.48
2022-11-05T08:49:21.503Z,9.45
2022-11-05T08:51:51.371Z,6.63
2022-11-05T08:54:19.774Z,7.88
2022-11-05T08:56:48.038Z,9.90
2022-11-05T08:59:16.470Z,8.43
2022-11-05T09:01:45.002Z,9.25
2022-11-05T09:04:13.538Z,6.68
2022-11-05T09:06:42.194Z,7.88
2022-11-05T09:09:12.628Z,7.95
2022-11-05T09:12:05.686Z,8.20
2022-11-05T09:14:30.329Z,6.78
2022-11-05T09:16:58.863Z,8.50
2022-11-05T09:19:27.565Z,7.40
2022-11-05T09:21:56.033Z,6.05
2022-11-05T09:24:25.858Z,6.57
2022-11-05T09:26:54.244Z,7.78
2022-11-05T09:29:22.760Z,6.00
2022-11-05T09:31:51.155Z,7.72
2022-11-05T09:34:19.530Z,9.60
2022-11-05T09:36:48.394Z,7.22
2022-11-05T09:39:17.093Z,7.20
2022-11-05T09:41:48.845Z,7.03
2022-11-05T09:44:20.754Z,6.45
2022-11-05T09:46:53.134Z,25.80
2022-11-05T09:49:27.338Z,6.93
2022-11-05T09:51:58.883Z,5.45
2022-11-05T09:54:32.423Z,10.25
2022-11-05T09:57:05.207Z,8.48
2022-11-05T09:59:41.169Z,10.88
2022-11-05T10:02:18.028Z,5.13
2022-11-05T10:04:49.779Z,7.60
2022-11-05T10:07:23.171Z,7.07
2022-11-05T10:09:55.296Z,6.13
2022-11-05T10:12:29.943Z,4.70
2022-11-05T10:15:07.219Z,5.93
2022-11-05T10:17:39.292Z,10.95
2022-11-05T10:20:15.790Z,5.85
2022-11-05T10:22:49.341Z,6.93
2022-11-05T10:25:20.621Z,6.45
2022-11-05T10:27:53.849Z,7.38
2022-11-05T10:30:23.137Z,9.50
2022-11-05T10:32:56.063Z,11.95
2022-11-05T10:35:26.622Z,8.70
2022-11-05T10:37:55.412Z,6.07
2022-11-05T10:40:34.119Z,10.18
2022-11-05T10:43:08.085Z,8.35
2022-11-05T10:45:51.463Z,5.38
2022-11-05T10:48:52.046Z,7.53
2022-11-05T10:51:20.901Z,7.57
2022-11-05T10:54:00.513Z,7.28
2022-11-05T10:56:36.074Z,8.20
2022-11-05T10:59:12.217Z,7.50
2022-11-05T11:01:41.438Z,5.85
2022-11-05T11:04:18.270Z,6.93
2022-11-05T11:06:51.273Z,8.07
2022-11-05T11:09:23.568Z,2.58
2022-11-05T11:12:03.078Z,2.92
2022-11-05T11:14:33.681Z,7.00
2022-11-05T11:17:20.139Z,3.40
2022-11-05T11:19:48.977Z,4.90
2022-11-05T11:22:23.036Z,2.83
2022-11-05T11:24:54.913Z,3.40
2022-11-05T11:27:26.434Z,4.50
2022-11-05T11:30:00.176Z,2.50
2022-11-05T11:32:34.546Z,2.05
2022-11-05T11:35:03.165Z,3.75
2022-11-05T11:37:35.607Z,4.35
2022-11-05T11:40:10.167Z,3.58
2022-11-05T11:42:42.445Z,3.17
2022-11-05T11:45:20.067Z,6.97
2022-11-05T11:47:51.884Z,3.30
2022-11-05T11:50:39.513Z,3.60
2022-11-05T11:53:29.591Z,5.13
2022-11-05T11:56:04.258Z,4.07
2022-11-05T11:58:43.529Z,3.40
2022-11-05T12:01:27.677Z,3.67
2022-11-05T12:04:04.095Z,2.38
2022-11-05T12:06:38.565Z,5.93
2022-11-05T12:09:11.134Z,3.45
2022-11-05T12:11:45.150Z,5.47
2022-11-05T12:14:28.590Z,4.45
2022-11-05T12:17:22.724Z,4.53
2022-11-05T12:20:18.198Z,4.82
2022-11-05T12:23:07.089Z,5.32
2022-11-05T12:25:42.615Z,5.38
2022-11-05T12:28:31.179Z,4.55
2022-11-05T12:31:09.186Z,7.05
2022-11-05T12:33:48.521Z,7.05
2022-11-05T12:36:30.537Z,5.40
2022-11-05T12:39:20.587Z,5.75
2022-11-05T12:41:56.652Z,5.03
2022-11-05T12:44:46.827Z,5.47
2022-11-05T12:47:30.180Z,7.00
2022-11-05T12:50:16.840Z,3.58
2022-11-05T12:53:02.003Z,7.35
2022-11-05T12:55:34.884Z,6.03
2022-11-05T12:58:10.408Z,4.97
2022-11-05T13:00:42.722Z,3.47
2022-11-05T13:03:34.009Z,7.05
2022-11-05T13:06:09.489Z,7.13
2022-11-05T13:08:44.195Z,3.95
2022-11-05T13:11:20.817Z,4.45
2022-11-05T13:13:58.769Z,4.07
2022-11-05T13:16:32.140Z,6.43
2022-11-05T13:19:06.514Z,5.00
2022-11-05T13:21:38.823Z,8.82
2022-11-05T13:24:16.621Z,6.70
2022-11-05T13:26:50.596Z,3.65
2022-11-05T13:29:23.719Z,5.93
2022-11-05T13:32:01.546Z,6.85
2022-11-05T13:34:34.852Z,4.93
2022-11-05T13:37:27.169Z,3.47
2022-11-05T13:39:58.588Z,3.28
2022-11-05T13:42:57.921Z,4.90
2022-11-05T13:45:46.237Z,4.05
2022-11-05T13:48:41.723Z,5.93
2022-11-05T13:51:36.163Z,4.60
2022-11-05T13:54:34.850Z,4.45
2022-11-05T13:57:18.658Z,4.45
2022-11-05T14:00:05.341Z,2.22
2022-11-05T14:02:40.159Z,4.65
2022-11-05T14:05:17.277Z,2.75
2022-11-05T14:07:48.253Z,2.25
2022-11-05T14:10:27.857Z,4.25
2022-11-05T14:12:59.370Z,5.72
2022-11-05T14:15:29.864Z,3.80
2022-11-05T14:18:01.818Z,4.78
2022-11-05T14:20:57.565Z,4.68
2022-11-05T14:23:53.262Z,6.72
2022-11-05T14:26:25.959Z,5.80
2022-11-05T14:29:22.941Z,4.22
2022-11-05T14:32:08.684Z,4.95
2022-11-05T14:34:49.974Z,8.48
2022-11-05T14:37:30.757Z,5.63
2022-11-05T14:40:24.858Z,7.47
2022-11-05T14:42:57.143Z,6.25
2022-11-05T14:45:30.989Z,5.63
2022-11-05T14:48:01.087Z,5.55
2022-11-05T14:50:37.117Z,5.60
2022-11-05T14:53:27.619Z,6.75
2022-11-05T14:56:02.435Z,6.03
2022-11-05T14:58:35.913Z,7.93
2022-11-05T15:01:07.075Z,12.55
2022-11-05T15:04:17.874Z,9.15
2022-11-05T15:07:15.209Z,5.20
2022-11-05T15:09:48.163Z,7.20
2022-11-05T15:12:21.415Z,8.05
2022-11-05T15:14:58.516Z,6.75
2022-11-05T15:17:30.306Z,8.60
2022-11-05T15:20:09.777Z,11.38
2022-11-05T15:22:45.716Z,7.63
2022-11-05T15:25:19.617Z,7.43
2022-11-05T15:28:01.030Z,8.35
2022-11-05T15:30:31.585Z,11.52
2022-11-05T15:33:11.469Z,10.75
2022-11-05T15:35:42.953Z,8.18
2022-11-05T15:38:31.388Z,6.10
2022-11-05T15:41:02.041Z,6.13
2022-11-05T15:43:30.817Z,9.45
2022-11-05T15:46:08.669Z,13.75
2022-11-05T15:48:38.130Z,17.20
2022-11-05T15:51:07.169Z,24.90
2022-11-05T15:54:01.928Z,17.50
2022-11-05T15:56:30.831Z,14.52
2022-11-05T15:59:03.825Z,17.48
2022-11-05T16:01:36.776Z,14.77
2022-11-05T16:04:16.746Z,16.65
2022-11-05T16:06:48.576Z,15.02
2022-11-05T16:09:24.035Z,6.70
2022-11-05T16:12:10.350Z,5.82
2022-11-05T16:14:39.055Z,4.70
2022-11-05T16:17:20.154Z,5.68
2022-11-05T16:19:49.730Z,5.45
2022-11-05T16:22:18.962Z,8.40
2022-11-05T16:24:48.219Z,4.22
2022-11-05T16:27:19.784Z,5.18
2022-11-05T16:29:52.148Z,5.85
2022-11-05T16:32:30.781Z,5.07
2022-11-05T16:35:02.537Z,3.63
2022-11-05T16:37:38.286Z,7.22
2022-11-05T16:40:14.812Z,6.85
2022-11-05T16:42:43.506Z,6.53
2022-11-05T16:45:15.049Z,4.60
2022-11-05T16:47:46.299Z,7.50
2022-11-05T16:50:18.498Z,6.57
2022-11-05T16:52:48.023Z,5.88
2022-11-05T16:55:18.324Z,6.80
2022-11-05T16:57:49.101Z,8.63
2022-11-05T17:00:19.622Z,4.60
2022-11-05T17:02:49.857Z,6.95
2022-11-05T17:05:21.607Z,7.35
2022-11-05T17:07:50.313Z,14.73
2022-11-05T17:10:19.481Z,24.30
2022-11-05T17:12:49.330Z,15.43
2022-11-05T17:15:21.009Z,14.15
2022-11-05T17:17:50.855Z,16.05
2022-11-05T17:20:32.533Z,13.82
2022-11-05T17:23:05.733Z,7.70
2022-11-05T17:25:34.187Z,12.23
2022-11-05T17:28:03.228Z,20.63
2022-11-05T17:30:32.051Z,14.02
2022-11-05T17:33:02.105Z,9.57
2022-11-05T17:35:30.621Z,7.75
2022-11-05T17:37:59.441Z,5.60
2022-11-05T17:40:28.580Z,5.93
2022-11-05T17:42:57.389Z,9.50
2022-11-05T17:45:25.745Z,5.35
2022-11-05T17:47:54.680Z,8.40
2022-11-05T17:50:25.272Z,9.55
2022-11-05T17:52:53.617Z,7.65
2022-11-05T17:55:22.159Z,10.82
2022-11-05T17:57:52.119Z,15.65
2022-11-05T18:00:23.400Z,13.75
2022-11-05T18:02:54.945Z,7.05
2022-11-05T18:05:27.749Z,5.70
2022-11-05T18:07:57.225Z,6.47
2022-11-05T18:10:26.535Z,4.20
2022-11-05T18:12:54.879Z,3.65
2022-11-05T18:15:23.452Z,6.32
2022-11-05T18:17:51.829Z,7.05
2022-11-05T18:20:20.366Z,5.93
2022-11-05T18:22:52.062Z,6.40
2022-11-05T18:25:21.040Z,6.43
2022-11-05T18:27:49.808Z,5.55
2022-11-05T18:30:18.331Z,6.93
2022-11-05T18:32:47.830Z,7.85
2022-11-05T18:35:16.202Z,5.40
2022-11-05T18:37:44.683Z,4.50
2022-11-05T18:40:14.653Z,6.43
2022-11-05T18:42:43.884Z,4.38
2022-11-05T18:45:13.283Z,4.43
2022-11-05T18:47:42.354Z,8.88
2022-11-05T18:50:11.356Z,10.07
2022-11-05T18:52:39.865Z,9.65
2022-11-05T18:55:10.030Z,7.10
2022-11-05T18:57:40.001Z,7.35
2022-11-05T19:00:09.892Z,8.70
2022-11-05T19:02:38.570Z,7.18
2022-11-05T19:05:27.903Z,6.97
2022-11-05T19:07:56.167Z,7.47
2022-11-05T19:10:24.860Z,6.20
2022-11-05T19:12:54.921Z,7.13
2022-11-05T19:15:23.408Z,6.65
2022-11-05T19:17:51.836Z,6.53
2022-11-05T19:20:20.291Z,9.85
2022-11-05T19:22:48.648Z,10.27
2022-11-05T19:25:16.984Z,4.65
2022-11-05T19:27:45.420Z,5.95
2022-11-05T19:30:15.764Z,4.95
2022-11-05T19:32:44.105Z,7.43
2022-11-05T19:35:12.688Z,8.25
2022-11-05T19:37:41.020Z,12.10
2022-11-05T19:40:11.299Z,7.60
2022-11-05T19:42:40.090Z,6.97
2022-11-05T19:45:43.069Z,8.35
2022-11-05T19:47:59.970Z,10.48
2022-11-05T19:50:28.271Z,7.15
2022-11-05T19:52:56.645Z,7.80
2022-11-05T19:55:25.146Z,9.18
2022-11-05T19:57:53.489Z,7.85
2022-11-05T20:00:22.052Z,5.78
2022-11-05T20:02:50.608Z,11.65
2022-11-05T20:05:21.204Z,9.63
2022-11-05T20:07:52.769Z,5.72
2022-11-05T20:10:22.167Z,7.97
2022-11-05T20:12:50.896Z,7.10
2022-11-05T20:15:21.097Z,6.07
2022-11-05T20:17:51.397Z,6.28
2022-11-05T20:20:21.791Z,6.15
2022-11-05T20:22:52.360Z,6.65
2022-11-05T20:25:20.755Z,6.50
2022-11-05T20:27:49.141Z,8.07
2022-11-05T20:30:18.755Z,8.80
2022-11-05T20:32:47.567Z,9.95
2022-11-05T20:35:16.271Z,9.13
2022-11-05T20:37:49.778Z,9.30
2022-11-05T20:40:22.065Z,6.90
2022-11-05T20:42:50.338Z,9.32
2022-11-05T20:45:18.987Z,9.65
2022-11-05T20:47:47.401Z,7.80
2022-11-05T20:50:15.781Z,7.00
2022-11-05T20:52:45.597Z,7.32
2022-11-05T20:55:13.942Z,8.00
2022-11-05T20:57:42.294Z,12.82
2022-11-05T21:00:12.058Z,9.48
2022-11-05T21:02:41.995Z,8.80
2022-11-05T21:05:10.805Z,5.88
2022-11-05T21:07:39.837Z,5.80
2022-11-05T21:10:10.517Z,7.40
2022-11-05T21:12:39.180Z,8.57
2022-11-05T21:15:09.203Z,7.00
2022-11-05T21:17:37.688Z,10.68
2022-11-05T21:20:07.250Z,5.93
2022-11-05T21:22:35.631Z,6.00
2022-11-05T21:25:04.008Z,10.10
2022-11-05T21:27:33.944Z,7.95
2022-11-05T21:30:02.348Z,10.07
2022-11-05T21:32:30.836Z,8.52
2022-11-05T21:34:59.371Z,7.50
2022-11-05T21:37:27.883Z,9.38
2022-11-05T21:39:57.165Z,8.02
2022-11-05T21:42:25.680Z,5.80
2022-11-05T21:45:00.224Z,4.47
2022-11-05T21:47:29.457Z,4.43
2022-11-05T21:49:57.758Z,4.78
2022-11-05T21:52:43.405Z,6.35
2022-11-05T21:55:30.366Z,6.88
2022-11-05T21:58:17.500Z,6.38
2022-11-05T22:00:47.686Z,5.47
2022-11-05T22:03:15.945Z,6.05
2022-11-05T22:05:44.977Z,4.65
2022-11-05T22:08:13.639Z,8.65
2022-11-05T22:10:42.266Z,5.43
2022-11-05T22:13:10.633Z,7.10
2022-11-05T22:15:39.542Z,7.38
2022-11-05T22:18:09.541Z,6.28
2022-11-05T22:20:40.142Z,7.35
2022-11-05T22:23:11.426Z,7.05
2022-11-05T22:25:40.037Z,8.50
2022-11-05T22:28:08.471Z,7.15
2022-11-05T22:30:37.572Z,6.25
2022-11-05T22:33:05.982Z,6.22
2022-11-05T22:35:35.791Z,6.07
2022-11-05T22:38:04.697Z,7.03
2022-11-05T22:40:33.133Z,5.72
2022-11-05T22:43:02.426Z,6.70
2022-11-05T22:45:30.823Z,5.60
2022-11-05T22:48:01.545Z,4.00
2022-11-05T22:50:32.673Z,3.55
2022-11-05T22:53:02.474Z,4.78
2022-11-05T22:55:30.822Z,4.47
2022-11-05T22:57:59.203Z,5.13
2022-11-05T23:00:38.898Z,5.18
2022-11-05T23:03:07.500Z,5.35
2022-11-05T23:05:36.039Z,3.17
2022-11-05T23:08:23.274Z,4.22
2022-11-05T23:11:23.260Z,3.17
2022-11-05T23:13:51.706Z,7.32
2022-11-05T23:16:37.289Z,3.17
2022-11-05T23:19:23.069Z,5.47
2022-11-05T23:22:08.673Z,4.85
2022-11-05T23:24:38.514Z,5.13
2022-11-05T23:27:06.973Z,4.03
2022-11-05T23:29:35.638Z,3.95
2022-11-05T23:32:29.797Z,4.30
2022-11-05T23:34:59.905Z,4.60
2022-11-05T23:37:54.302Z,4.75
2022-11-05T23:40:27.618Z,4.65
2022-11-05T23:43:14.258Z,5.18
2022-11-05T23:46:00.796Z,4.32
2022-11-05T23:48:32.406Z,4.78
2022-11-05T23:51:02.921Z,5.43
2022-11-05T23:53:34.753Z,4.80
2022-11-05T23:56:07.916Z,6.75
2022-11-05T23:58:36.740Z,5.75
